Time;durP1;ratioP1;P1;durP2;ratioP2;P2;SDS_P1;SDS_P2;PMS_P1;PMS_P2;Temp;Humidity;BMP_temperature;BMP_pressure;BME280_temperature;BME280_humidity;BME280_pressure;Samples;Min_cycle;Max_cycle;Signal;HPM_P1;HPM_P2
2023/01/04 00:00:30;;;;;;;;;;;8.10;77.70;;;;;;4989549;28;19936;-89
2023/01/04 00:02:56;;;;;;;;;;;8.20;77.50;;;;;;4669012;22;19924;-80
2023/01/04 00:05:21;;;;;;;;;;;8.30;77.20;;;;;;5025353;28;19913;-88
2023/01/04 00:07:47;;;;;;;;;;;8.30;77.30;;;;;;5008192;28;20389;-84
2023/01/04 00:10:13;;;;;;;;;;;8.10;77.40;;;;;;5008642;28;19913;-81
2023/01/04 00:12:38;;;;;;;;;;;8.10;77.70;;;;;;5015024;28;19936;-81
2023/01/04 00:15:04;;;;;;;;;;;8.10;77.90;;;;;;5015394;28;19928;-80
2023/01/04 00:17:30;;;;;;;;;;;8.10;77.70;;;;;;5031128;28;19975;-80
2023/01/04 00:19:55;;;;;;;;;;;8.20;77.60;;;;;;5029020;28;19971;-81
2023/01/04 00:22:20;;;;;;;;;;;8.10;77.80;;;;;;5014721;28;19959;-80
2023/01/04 00:24:46;;;;;;;;;;;8.00;77.80;;;;;;5033760;28;19921;-81
2023/01/04 00:27:11;;;;;;;;;;;8.10;77.80;;;;;;5031593;28;19913;-79
2023/01/04 00:29:37;;;;;;;;;;;8.20;77.50;;;;;;5032969;28;19917;-79
2023/01/04 00:32:02;;;;;;;;;;;8.20;77.60;;;;;;5007054;28;20028;-79
2023/01/04 00:34:28;;;;;;;;;;;8.20;77.60;;;;;;5023556;28;19913;-79
2023/01/04 00:36:53;;;;;;;;;;;8.20;77.50;;;;;;5007049;28;19956;-79
2023/01/04 00:39:20;;;;;;;;;;;8.30;77.40;;;;;;5012879;28;19914;-79
2023/01/04 00:41:47;;;;;;;;;;;8.30;77.50;;;;;;5034226;28;19971;-80
2023/01/04 00:44:13;;;;;;;;;;;8.30;77.30;;;;;;5006174;28;19909;-79
2023/01/04 00:46:39;;;;;;;;;;;8.30;77.50;;;;;;5024446;28;20688;-79
2023/01/04 00:49:05;;;;;;;;;;;8.30;77.70;;;;;;5014589;28;20337;-79
2023/01/04 00:51:31;;;;;;;;;;;8.30;77.60;;;;;;5027780;28;20004;-80
2023/01/04 00:53:58;;;;;;;;;;;8.30;77.30;;;;;;5013596;28;19975;-80
2023/01/04 00:56:24;;;;;;;;;;;8.30;77.40;;;;;;5009358;28;22006;-80
2023/01/04 00:58:52;;;;;;;;;;;8.30;77.50;;;;;;5004792;28;19949;-80
2023/01/04 01:01:18;;;;;;;;;;;8.40;77.40;;;;;;5009651;28;19951;-80
2023/01/04 01:03:43;;;;;;;;;;;8.40;77.60;;;;;;5028823;28;19940;-80
2023/01/04 01:06:12;;;;;;;;;;;8.50;77.30;;;;;;5007244;28;20008;-80
2023/01/04 01:08:38;;;;;;;;;;;8.50;77.80;;;;;;5008086;28;19913;-80
2023/01/04 01:11:05;;;;;;;;;;;8.40;77.90;;;;;;5034084;28;19982;-80
2023/01/04 01:13:30;;;;;;;;;;;8.50;78.30;;;;;;5030186;28;19931;-79
2023/01/04 01:15:56;;;;;;;;;;;8.50;78.60;;;;;;5032576;28;19913;-80
2023/01/04 01:18:21;;;;;;;;;;;8.50;79.00;;;;;;5010515;28;19936;-81
2023/01/04 01:20:46;;;;;;;;;;;8.50;79.30;;;;;;5028210;28;20446;-80
2023/01/04 01:23:12;;;;;;;;;;;8.50;79.30;;;;;;5025203;28;20021;-80
2023/01/04 01:25:38;;;;;;;;;;;8.50;79.80;;;;;;5012424;28;20027;-80
2023/01/04 01:28:04;;;;;;;;;;;8.40;80.20;;;;;;5030578;28;20388;-79
2023/01/04 01:30:29;;;;;;;;;;;8.50;80.10;;;;;;5015330;28;19917;-80
2023/01/04 01:32:55;;;;;;;;;;;8.40;80.60;;;;;;5004491;28;19917;-79
2023/01/04 01:35:20;;;;;;;;;;;8.40;81.50;;;;;;5011225;28;20277;-80
2023/01/04 01:37:46;;;;;;;;;;;8.30;81.70;;;;;;5026616;28;19921;-79
2023/01/04 01:40:11;;;;;;;;;;;8.30;81.90;;;;;;5019381;28;20304;-80
2023/01/04 01:42:37;;;;;;;;;;;8.30;82.20;;;;;;5033995;28;19922;-80
2023/01/04 01:45:09;;;;;;;;;;;8.20;82.50;;;;;;5004326;28;19914;-80
2023/01/04 01:47:56;;;;;;;;;;;8.30;82.80;;;;;;5017915;28;20012;-80
2023/01/04 01:50:25;;;;;;;;;;;8.40;82.70;;;;;;5018153;28;19913;-80
2023/01/04 01:52:51;;;;;;;;;;;8.30;83.10;;;;;;5039384;28;19948;-79
2023/01/04 01:55:16;;;;;;;;;;;8.30;83.30;;;;;;5032279;28;19932;-80
2023/01/04 01:57:42;;;;;;;;;;;8.20;83.60;;;;;;5053312;28;20023;-79
2023/01/04 02:00:09;;;;;;;;;;;8.20;83.90;;;;;;5040383;28;19996;-80
2023/01/04 02:02:34;;;;;;;;;;;8.20;84.10;;;;;;5010792;28;19913;-79
2023/01/04 02:05:00;;;;;;;;;;;8.20;84.30;;;;;;5035689;28;19970;-80
2023/01/04 02:07:26;;;;;;;;;;;8.20;84.30;;;;;;5030028;28;19913;-79
2023/01/04 02:09:52;;;;;;;;;;;8.20;84.50;;;;;;5021017;28;20013;-80
2023/01/04 02:12:21;;;;;;;;;;;8.20;84.80;;;;;;5012799;28;20005;-79
2023/01/04 02:14:48;;;;;;;;;;;8.10;84.90;;;;;;5034128;28;19931;-79
2023/01/04 02:17:17;;;;;;;;;;;8.10;85.20;;;;;;5006539;28;19913;-80
2023/01/04 02:20:01;;;;;;;;;;;8.10;85.40;;;;;;5036423;28;19955;-79
2023/01/04 02:22:29;;;;;;;;;;;8.00;85.70;;;;;;5028329;28;20415;-82
2023/01/04 02:24:54;;;;;;;;;;;8.10;85.40;;;;;;5012365;28;19917;-79
2023/01/04 02:27:26;;;;;;;;;;;8.10;85.30;;;;;;5011479;28;19985;-79
2023/01/04 02:30:12;;;;;;;;;;;8.20;85.10;;;;;;5015780;28;19912;-80
2023/01/04 02:32:45;;;;;;;;;;;8.20;85.80;;;;;;4975530;28;19921;-80
2023/01/04 02:35:13;;;;;;;;;;;8.10;86.00;;;;;;5028158;28;19925;-80
2023/01/04 02:37:44;;;;;;;;;;;8.10;86.30;;;;;;5009193;28;19992;-80
2023/01/04 02:40:31;;;;;;;;;;;8.10;86.90;;;;;;5012898;28;20371;-79
2023/01/04 02:45:55;;;;;;;;;;;8.10;87.40;;;;;;5022418;28;19929;-80
2023/01/04 02:51:23;;;;;;;;;;;7.90;88.20;;;;;;5032206;28;19960;-79
2023/01/04 02:53:48;;;;;;;;;;;7.90;88.60;;;;;;5014980;28;19921;-81
2023/01/04 02:56:36;;;;;;;;;;;8.00;88.70;;;;;;5029600;28;20048;-81
2023/01/04 02:59:12;;;;;;;;;;;8.00;88.90;;;;;;5009572;28;19917;-80
2023/01/04 03:07:25;;;;;;;;;;;8.00;89.10;;;;;;5029619;28;19999;-80
2023/01/04 03:09:53;;;;;;;;;;;7.90;89.30;;;;;;5010846;28;19924;-80
2023/01/04 03:12:31;;;;;;;;;;;8.00;89.30;;;;;;5008718;28;20377;-83
2023/01/04 03:15:10;;;;;;;;;;;8.00;89.40;;;;;;5022316;28;19944;-81
2023/01/04 03:17:42;;;;;;;;;;;8.00;89.50;;;;;;5011317;28;20016;-82
2023/01/04 03:20:09;;;;;;;;;;;8.00;89.40;;;;;;5030543;28;19967;-82
2023/01/04 03:36:36;;;;;;;;;;;8.00;90.30;;;;;;5030845;28;20302;-82
2023/01/04 03:50:26;;;;;;;;;;;8.10;90.60;;;;;;5036321;28;19920;-82
2023/01/04 03:52:52;;;;;;;;;;;8.20;90.50;;;;;;5017790;28;20048;-82
2023/01/04 03:55:18;;;;;;;;;;;8.20;90.50;;;;;;5030593;28;19952;-82
2023/01/04 03:57:45;;;;;;;;;;;8.20;90.40;;;;;;5021099;28;20423;-81
2023/01/04 04:00:12;;;;;;;;;;;8.30;90.20;;;;;;5019786;28;19921;-82
2023/01/04 04:02:46;;;;;;;;;;;8.30;89.90;;;;;;5012614;28;21240;-81
2023/01/04 04:14:15;;;;;;;;;;;8.30;89.90;;;;;;4977911;28;21183;-82
2023/01/04 04:16:49;;;;;;;;;;;8.30;90.10;;;;;;4960571;28;20004;-82
2023/01/04 04:19:18;;;;;;;;;;;8.40;90.20;;;;;;4991686;28;19913;-82
2023/01/04 04:21:48;;;;;;;;;;;8.40;90.20;;;;;;5014181;28;19924;-82
2023/01/04 04:24:26;;;;;;;;;;;8.40;90.10;;;;;;5024333;28;19935;-82
2023/01/04 04:26:57;;;;;;;;;;;8.40;90.20;;;;;;5020306;28;20011;-82
2023/01/04 04:29:23;;;;;;;;;;;8.40;90.40;;;;;;5011230;28;19913;-82
2023/01/04 04:31:48;;;;;;;;;;;8.40;90.70;;;;;;5029385;28;19924;-82
2023/01/04 04:34:14;;;;;;;;;;;8.40;90.90;;;;;;5013474;28;19921;-82
2023/01/04 04:36:40;;;;;;;;;;;8.40;91.00;;;;;;5019672;28;20498;-82
2023/01/04 04:39:08;;;;;;;;;;;8.40;90.80;;;;;;5016885;28;19913;-82
2023/01/04 04:41:40;;;;;;;;;;;8.40;90.90;;;;;;5014157;28;19917;-81
2023/01/04 04:44:18;;;;;;;;;;;8.50;91.00;;;;;;5003933;28;20000;-82
2023/01/04 04:46:45;;;;;;;;;;;8.50;91.00;;;;;;5025084;28;19925;-82
2023/01/04 04:49:14;;;;;;;;;;;8.50;90.80;;;;;;5017876;28;19924;-81
2023/01/04 04:51:40;;;;;;;;;;;8.50;91.00;;;;;;5013831;28;19920;-81
2023/01/04 04:54:06;;;;;;;;;;;8.50;90.80;;;;;;5031878;28;19913;-81
2023/01/04 04:56:41;;;;;;;;;;;8.50;90.60;;;;;;5014495;28;20043;-80
2023/01/04 04:59:06;;;;;;;;;;;8.50;90.70;;;;;;5010292;28;19920;-81
2023/01/04 05:01:32;;;;;;;;;;;8.50;90.70;;;;;;5014284;28;19917;-82
2023/01/04 05:04:06;;;;;;;;;;;8.50;90.90;;;;;;5027564;28;20301;-81
2023/01/04 05:06:32;;;;;;;;;;;8.60;90.90;;;;;;5014069;28;19913;-80
2023/01/04 05:08:57;;;;;;;;;;;8.60;91.00;;;;;;5043839;28;19920;-81
2023/01/04 05:14:08;;;;;;;;;;;8.50;91.30;;;;;;5032278;28;19936;-81
2023/01/04 05:16:33;;;;;;;;;;;8.50;91.20;;;;;;5031638;28;19948;-81
2023/01/04 05:18:59;;;;;;;;;;;8.60;91.40;;;;;;5025924;28;19932;-82
2023/01/04 05:21:25;;;;;;;;;;;8.50;91.20;;;;;;5014347;28;19932;-82
2023/01/04 05:23:53;;;;;;;;;;;8.60;91.40;;;;;;5021183;28;20620;-82
2023/01/04 05:26:19;;;;;;;;;;;8.60;91.40;;;;;;5010266;28;19957;-81
2023/01/04 05:28:44;;;;;;;;;;;8.60;91.20;;;;;;5030020;28;19923;-82
2023/01/04 05:31:10;;;;;;;;;;;8.60;91.10;;;;;;5031769;28;19924;-82
2023/01/04 05:33:35;;;;;;;;;;;8.60;91.00;;;;;;5033108;28;19912;-81
2023/01/04 05:36:02;;;;;;;;;;;8.70;91.00;;;;;;5027220;28;19917;-82
2023/01/04 05:38:28;;;;;;;;;;;8.70;91.00;;;;;;5018035;28;19917;-82
2023/01/04 05:40:54;;;;;;;;;;;8.80;91.10;;;;;;5028887;28;19921;-83
2023/01/04 05:43:20;;;;;;;;;;;8.80;91.00;;;;;;5012359;28;20375;-82
2023/01/04 05:45:47;;;;;;;;;;;8.80;90.90;;;;;;5007890;28;20044;-81
2023/01/04 05:48:13;;;;;;;;;;;9.00;90.70;;;;;;5035344;28;20016;-81
2023/01/04 05:50:38;;;;;;;;;;;9.00;90.50;;;;;;5016038;28;19963;-82
2023/01/04 05:53:04;;;;;;;;;;;9.00;90.40;;;;;;5008726;28;20442;-81
2023/01/04 05:55:30;;;;;;;;;;;9.00;90.50;;;;;;5018816;28;19968;-82
2023/01/04 05:57:56;;;;;;;;;;;9.10;90.50;;;;;;5015766;28;19936;-81
2023/01/04 06:00:21;;;;;;;;;;;9.10;90.40;;;;;;5016488;28;19918;-83
2023/01/04 06:02:47;;;;;;;;;;;9.00;90.30;;;;;;5044348;22;19913;-86
2023/01/04 06:05:12;;;;;;;;;;;9.00;90.40;;;;;;5002300;28;19964;-86
2023/01/04 06:07:38;;;;;;;;;;;9.20;90.20;;;;;;5016798;28;20371;-85
2023/01/04 06:10:08;;;;;;;;;;;9.20;90.10;;;;;;5030905;28;20435;-86
2023/01/04 06:12:33;;;;;;;;;;;9.20;89.90;;;;;;5039850;28;19936;-85
2023/01/04 06:14:59;;;;;;;;;;;9.30;90.10;;;;;;5008320;28;19917;-85
2023/01/04 06:17:24;;;;;;;;;;;9.30;89.90;;;;;;5017748;28;19928;-86
2023/01/04 06:19:49;;;;;;;;;;;9.30;89.90;;;;;;4998749;28;19967;-86
2023/01/04 06:22:15;;;;;;;;;;;9.30;89.90;;;;;;5017047;28;19948;-86
2023/01/04 06:24:40;;;;;;;;;;;9.40;89.70;;;;;;5006905;28;19956;-85
2023/01/04 06:27:06;;;;;;;;;;;9.40;89.60;;;;;;5015379;28;19929;-86
2023/01/04 06:29:31;;;;;;;;;;;9.40;89.50;;;;;;5019000;28;19905;-86
2023/01/04 06:31:57;;;;;;;;;;;9.30;89.70;;;;;;5014967;28;19925;-86
2023/01/04 06:34:23;;;;;;;;;;;9.40;89.70;;;;;;5004251;28;19920;-86
2023/01/04 06:36:48;;;;;;;;;;;9.40;89.50;;;;;;4995977;28;19949;-86
2023/01/04 06:39:13;;;;;;;;;;;9.40;89.60;;;;;;4993212;28;19968;-86
2023/01/04 06:41:39;;;;;;;;;;;9.40;89.60;;;;;;4994943;28;19918;-87
2023/01/04 06:44:04;;;;;;;;;;;9.50;89.20;;;;;;5024947;28;19910;-84
2023/01/04 06:46:30;;;;;;;;;;;9.50;89.10;;;;;;5001467;28;19936;-87
2023/01/04 06:48:55;;;;;;;;;;;9.50;88.90;;;;;;4993634;28;20005;-85
2023/01/04 06:51:21;;;;;;;;;;;9.60;89.10;;;;;;4994342;28;19940;-85
2023/01/04 06:53:46;;;;;;;;;;;9.50;89.30;;;;;;4995769;28;19921;-85
2023/01/04 06:56:12;;;;;;;;;;;9.60;89.60;;;;;;4991531;28;20004;-85
2023/01/04 06:58:37;;;;;;;;;;;9.60;89.60;;;;;;5007897;28;19920;-86
2023/01/04 07:01:03;;;;;;;;;;;9.60;89.80;;;;;;5007718;28;19925;-87
2023/01/04 07:03:29;;;;;;;;;;;9.50;89.60;;;;;;5006860;28;20016;-87
2023/01/04 07:05:54;;;;;;;;;;;9.60;89.90;;;;;;4991075;28;19918;-86
2023/01/04 07:08:20;;;;;;;;;;;9.50;89.80;;;;;;4986109;28;19953;-85
2023/01/04 07:10:45;;;;;;;;;;;9.50;89.90;;;;;;5011775;28;19913;-85
2023/01/04 07:13:11;;;;;;;;;;;9.50;90.10;;;;;;4997344;28;19917;-85
2023/01/04 07:15:36;;;;;;;;;;;9.50;90.30;;;;;;5006462;28;20048;-85
2023/01/04 07:18:02;;;;;;;;;;;9.50;90.30;;;;;;4998163;28;19917;-86
2023/01/04 07:20:27;;;;;;;;;;;9.40;90.30;;;;;;4997001;28;19912;-85
2023/01/04 07:22:53;;;;;;;;;;;9.50;90.40;;;;;;5001524;28;19917;-86
2023/01/04 07:25:18;;;;;;;;;;;9.60;90.20;;;;;;4993378;28;19928;-86
2023/01/04 07:27:44;;;;;;;;;;;9.60;90.10;;;;;;5019600;28;19988;-86
2023/01/04 07:30:10;;;;;;;;;;;9.60;90.20;;;;;;5019993;28;20358;-86
2023/01/04 07:32:35;;;;;;;;;;;9.60;90.00;;;;;;5033050;28;19913;-87
2023/01/04 07:35:01;;;;;;;;;;;9.60;89.90;;;;;;5042222;28;19893;-87
2023/01/04 07:37:26;;;;;;;;;;;9.60;89.80;;;;;;5017001;28;19924;-86
2023/01/04 07:39:51;;;;;;;;;;;9.60;90.00;;;;;;5009767;28;20565;-86
2023/01/04 07:42:19;;;;;;;;;;;9.60;90.40;;;;;;5007216;28;19913;-91
2023/01/04 07:44:44;;;;;;;;;;;9.60;90.60;;;;;;5002716;28;19922;-85
2023/01/04 07:47:10;;;;;;;;;;;9.60;90.60;;;;;;5008896;28;20323;-84
2023/01/04 07:49:36;;;;;;;;;;;9.60;91.00;;;;;;5008789;28;19936;-85
2023/01/04 07:52:01;;;;;;;;;;;9.60;90.80;;;;;;5013883;28;20082;-81
2023/01/04 07:54:27;;;;;;;;;;;9.50;91.00;;;;;;5013355;28;19914;-82
2023/01/04 07:56:52;;;;;;;;;;;9.60;91.10;;;;;;5004649;28;20372;-80
2023/01/04 07:59:19;;;;;;;;;;;9.60;91.20;;;;;;5002298;28;21713;-82
2023/01/04 08:01:45;;;;;;;;;;;9.60;91.50;;;;;;5024377;28;19952;-81
2023/01/04 08:04:11;;;;;;;;;;;9.60;91.50;;;;;;4990871;28;20059;-81
2023/01/04 08:06:37;;;;;;;;;;;9.60;91.30;;;;;;5014126;28;19989;-82
2023/01/04 08:09:03;;;;;;;;;;;9.60;91.50;;;;;;4996517;28;19961;-83
2023/01/04 08:11:28;;;;;;;;;;;9.60;91.50;;;;;;4987834;28;20313;-81
2023/01/04 08:13:54;;;;;;;;;;;9.60;91.60;;;;;;4998421;28;20425;-81
2023/01/04 08:16:26;;;;;;;;;;;9.60;91.50;;;;;;5009906;28;19914;-82
2023/01/04 08:18:55;;;;;;;;;;;9.60;91.60;;;;;;4991763;28;19920;-84
2023/01/04 08:21:22;;;;;;;;;;;9.60;91.60;;;;;;4996243;28;19925;-83
2023/01/04 08:23:47;;;;;;;;;;;9.60;91.60;;;;;;5004610;28;20031;-84
2023/01/04 08:26:14;;;;;;;;;;;9.70;91.60;;;;;;4997667;28;19913;-83
2023/01/04 08:28:40;;;;;;;;;;;9.70;91.40;;;;;;5014224;28;19919;-85
2023/01/04 08:31:06;;;;;;;;;;;9.70;91.40;;;;;;5016645;28;20015;-85
2023/01/04 08:33:32;;;;;;;;;;;9.80;91.50;;;;;;4992133;28;19992;-84
2023/01/04 08:36:17;;;;;;;;;;;9.80;91.40;;;;;;5001903;28;20197;-84
2023/01/04 08:38:43;;;;;;;;;;;9.80;91.40;;;;;;5028996;28;19922;-84
2023/01/04 08:41:08;;;;;;;;;;;9.80;91.50;;;;;;4991201;28;19921;-85
2023/01/04 08:43:35;;;;;;;;;;;9.80;91.40;;;;;;4996075;28;19963;-84
2023/01/04 08:46:04;;;;;;;;;;;9.90;91.50;;;;;;4989416;28;19918;-85
2023/01/04 08:48:30;;;;;;;;;;;9.90;91.30;;;;;;4995368;28;19913;-86
2023/01/04 08:50:59;;;;;;;;;;;10.00;91.20;;;;;;5020523;28;19960;-85
2023/01/04 08:53:25;;;;;;;;;;;10.00;91.10;;;;;;5007654;28;19922;-85
2023/01/04 08:55:50;;;;;;;;;;;10.20;90.60;;;;;;4992987;28;19920;-82
2023/01/04 08:58:16;;;;;;;;;;;10.10;90.50;;;;;;4987528;28;19919;-87
2023/01/04 09:00:42;;;;;;;;;;;10.20;90.30;;;;;;5007114;28;19980;-88
2023/01/04 09:03:07;;;;;;;;;;;10.20;90.20;;;;;;5006420;28;20040;-87
2023/01/04 09:05:32;;;;;;;;;;;10.30;89.80;;;;;;5000918;28;19933;-87
2023/01/04 09:07:58;;;;;;;;;;;10.40;89.50;;;;;;4987580;28;19913;-85
2023/01/04 09:10:24;;;;;;;;;;;10.50;89.50;;;;;;4984272;28;20387;-87
2023/01/04 09:12:49;;;;;;;;;;;10.60;89.10;;;;;;4992463;28;19909;-88
2023/01/04 09:15:16;;;;;;;;;;;10.60;89.00;;;;;;4998035;28;19953;-86
2023/01/04 09:17:41;;;;;;;;;;;10.60;89.00;;;;;;5007349;28;19967;-88
2023/01/04 09:20:07;;;;;;;;;;;10.70;88.90;;;;;;5006164;28;19925;-87
2023/01/04 09:22:32;;;;;;;;;;;10.70;88.80;;;;;;4993623;28;19920;-88
2023/01/04 09:24:58;;;;;;;;;;;10.70;88.90;;;;;;5003677;28;19901;-87
2023/01/04 09:27:24;;;;;;;;;;;10.70;89.20;;;;;;4999659;28;19945;-85
2023/01/04 09:29:49;;;;;;;;;;;10.70;89.20;;;;;;5019152;28;20400;-85
2023/01/04 09:32:15;;;;;;;;;;;10.70;89.40;;;;;;5013189;28;19914;-86
2023/01/04 09:34:41;;;;;;;;;;;10.80;89.40;;;;;;4996674;28;19921;-86
2023/01/04 09:37:07;;;;;;;;;;;10.70;89.60;;;;;;5009795;28;19920;-84
2023/01/04 09:39:32;;;;;;;;;;;10.70;89.70;;;;;;5012102;28;19913;-85
2023/01/04 09:41:59;;;;;;;;;;;10.80;89.90;;;;;;4993293;28;20387;-85
2023/01/04 09:44:34;;;;;;;;;;;10.80;89.90;;;;;;4991408;28;20520;-84
2023/01/04 09:47:03;;;;;;;;;;;10.80;90.20;;;;;;5017407;28;19921;-84
2023/01/04 09:49:38;;;;;;;;;;;10.80;90.50;;;;;;4993077;28;19960;-83
2023/01/04 09:52:09;;;;;;;;;;;10.80;90.50;;;;;;5007176;28;19956;-83
2023/01/04 09:54:35;;;;;;;;;;;10.80;90.40;;;;;;5011695;28;19979;-87
2023/01/04 09:57:01;;;;;;;;;;;10.70;90.60;;;;;;4993449;28;19928;-82
2023/01/04 09:59:31;;;;;;;;;;;10.80;90.40;;;;;;5021964;28;19980;-82
2023/01/04 10:02:17;;;;;;;;;;;10.80;90.30;;;;;;5004557;28;19928;-82
2023/01/04 10:04:42;;;;;;;;;;;10.90;90.20;;;;;;5010398;28;20000;-81
2023/01/04 10:07:13;;;;;;;;;;;10.90;90.10;;;;;;5003635;28;20004;-81
2023/01/04 10:09:39;;;;;;;;;;;10.90;90.10;;;;;;5010630;28;19913;-82
2023/01/04 10:12:07;;;;;;;;;;;10.90;89.90;;;;;;4994346;28;19914;-86
2023/01/04 10:14:52;;;;;;;;;;;11.00;89.80;;;;;;4995549;28;19917;-83
2023/01/04 10:17:25;;;;;;;;;;;11.00;89.70;;;;;;5014582;28;19913;-85
2023/01/04 10:19:50;;;;;;;;;;;11.00;89.90;;;;;;4996098;28;19917;-84
2023/01/04 10:22:34;;;;;;;;;;;11.00;89.60;;;;;;5020624;28;20383;-83
2023/01/04 10:25:00;;;;;;;;;;;11.00;89.60;;;;;;5017645;28;19956;-87
2023/01/04 10:27:35;;;;;;;;;;;11.00;89.60;;;;;;5016968;28;19917;-83
2023/01/04 10:30:15;;;;;;;;;;;11.00;89.60;;;;;;5012532;28;19913;-85
2023/01/04 10:32:42;;;;;;;;;;;11.10;89.70;;;;;;5007397;28;20312;-88
2023/01/04 10:35:17;;;;;;;;;;;11.10;89.50;;;;;;4995281;28;19913;-84
2023/01/04 10:37:42;;;;;;;;;;;11.10;89.50;;;;;;5014955;28;19964;-85
2023/01/04 10:40:21;;;;;;;;;;;11.10;89.70;;;;;;5032428;28;19924;-86
2023/01/04 10:43:07;;;;;;;;;;;11.00;90.10;;;;;;5018267;28;19928;-85
2023/01/04 10:45:42;;;;;;;;;;;11.00;90.50;;;;;;5015937;28;20016;-84
2023/01/04 10:48:08;;;;;;;;;;;11.00;90.90;;;;;;5020388;28;19913;-82
2023/01/04 10:50:51;;;;;;;;;;;11.00;91.00;;;;;;5058408;28;19909;-81
2023/01/04 10:53:22;;;;;;;;;;;10.90;91.10;;;;;;5015725;28;20063;-82
2023/01/04 10:56:07;;;;;;;;;;;11.00;91.20;;;;;;5013760;28;19983;-83
2023/01/04 10:58:42;;;;;;;;;;;10.90;91.00;;;;;;4994094;28;19913;-84
2023/01/04 11:01:13;;;;;;;;;;;11.00;91.10;;;;;;5016919;28;19917;-83
2023/01/04 11:03:55;;;;;;;;;;;11.00;91.10;;;;;;5008959;28;19944;-84
2023/01/04 11:06:27;;;;;;;;;;;11.00;91.20;;;;;;5019947;28;19953;-85
2023/01/04 11:09:02;;;;;;;;;;;11.00;91.00;;;;;;5021855;28;19937;-88
2023/01/04 11:11:35;;;;;;;;;;;11.00;91.10;;;;;;5021879;28;20251;-90
2023/01/04 11:14:02;;;;;;;;;;;11.00;91.20;;;;;;4999610;28;20038;-84
2023/01/04 11:16:30;;;;;;;;;;;11.10;91.30;;;;;;5004934;28;20009;-84
2023/01/04 11:18:56;;;;;;;;;;;11.00;91.40;;;;;;5031587;28;19972;-83
2023/01/04 11:21:26;;;;;;;;;;;11.10;91.30;;;;;;4986076;28;19928;-83
2023/01/04 11:23:52;;;;;;;;;;;11.10;91.30;;;;;;4994229;28;20390;-84
2023/01/04 11:26:20;;;;;;;;;;;11.10;90.90;;;;;;5002627;28;20296;-80
2023/01/04 11:28:45;;;;;;;;;;;11.10;91.10;;;;;;4993601;28;19917;-84
2023/01/04 11:31:22;;;;;;;;;;;11.10;90.90;;;;;;5010287;28;20371;-85
2023/01/04 11:33:56;;;;;;;;;;;11.20;90.70;;;;;;5009974;28;20386;-82
2023/01/04 11:36:30;;;;;;;;;;;11.20;90.70;;;;;;4996988;28;20003;-82
2023/01/04 11:38:57;;;;;;;;;;;11.10;90.70;;;;;;4991890;28;19936;-82
2023/01/04 11:41:22;;;;;;;;;;;11.30;90.60;;;;;;5004278;28;19922;-82
2023/01/04 11:44:05;;;;;;;;;;;11.30;90.30;;;;;;4997427;28;19917;-83
2023/01/04 11:46:31;;;;;;;;;;;11.30;90.60;;;;;;5020087;28;19916;-82
2023/01/04 11:48:57;;;;;;;;;;;11.30;90.70;;;;;;5005298;28;19959;-82
2023/01/04 11:51:24;;;;;;;;;;;11.30;90.40;;;;;;4991431;28;19917;-81
2023/01/04 11:54:00;;;;;;;;;;;11.30;90.50;;;;;;5011718;28;19960;-82
2023/01/04 11:56:28;;;;;;;;;;;11.30;90.60;;;;;;4998679;28;19921;-82
2023/01/04 11:59:04;;;;;;;;;;;11.30;90.70;;;;;;5009154;28;19921;-82
2023/01/04 12:01:31;;;;;;;;;;;11.30;90.70;;;;;;4994215;28;20398;-83
2023/01/04 12:03:57;;;;;;;;;;;11.30;90.70;;;;;;5039289;23;19925;-84
2023/01/04 12:06:31;;;;;;;;;;;11.30;90.60;;;;;;5019598;28;19939;-84
2023/01/04 12:08:56;;;;;;;;;;;11.30;90.40;;;;;;5003956;28;19920;-84
2023/01/04 12:11:25;;;;;;;;;;;11.30;90.40;;;;;;4995824;28;19922;-85
2023/01/04 12:13:50;;;;;;;;;;;11.40;90.30;;;;;;4990133;28;21576;-83
2023/01/04 12:16:21;;;;;;;;;;;11.40;90.30;;;;;;4998222;28;19959;-84
2023/01/04 12:18:47;;;;;;;;;;;11.40;90.60;;;;;;5023626;28;19914;-83
2023/01/04 12:21:23;;;;;;;;;;;11.40;90.70;;;;;;5016230;28;19940;-83
2023/01/04 12:23:49;;;;;;;;;;;11.40;90.90;;;;;;4991044;28;19913;-83
2023/01/04 12:26:15;;;;;;;;;;;11.40;91.20;;;;;;4993880;28;19920;-82
2023/01/04 12:28:43;;;;;;;;;;;11.30;91.40;;;;;;5004258;28;19989;-83
2023/01/04 12:31:17;;;;;;;;;;;11.30;91.60;;;;;;5006543;28;19967;-83
2023/01/04 12:33:43;;;;;;;;;;;11.30;91.70;;;;;;5015339;28;19981;-83
2023/01/04 12:36:10;;;;;;;;;;;11.30;91.80;;;;;;5016398;28;19917;-84
2023/01/04 12:38:54;;;;;;;;;;;11.40;91.80;;;;;;5033848;28;19929;-83
2023/01/04 12:41:21;;;;;;;;;;;11.40;91.80;;;;;;4996426;28;19978;-84
2023/01/04 12:43:48;;;;;;;;;;;11.30;92.00;;;;;;5026215;28;19913;-84
2023/01/04 12:49:29;;;;;;;;;;;11.30;92.10;;;;;;5023390;28;19960;-84
2023/01/04 12:52:06;;;;;;;;;;;11.40;92.10;;;;;;5008045;28;19956;-84
2023/01/04 12:54:43;;;;;;;;;;;11.30;92.20;;;;;;5017643;28;19979;-83
2023/01/04 12:57:15;;;;;;;;;;;11.40;92.10;;;;;;5029951;28;19952;-83
2023/01/04 12:59:55;;;;;;;;;;;11.40;92.20;;;;;;5043917;28;19930;-82
2023/01/04 13:02:21;;;;;;;;;;;11.40;92.30;;;;;;5047436;28;19947;-83
2023/01/04 13:04:48;;;;;;;;;;;11.50;92.00;;;;;;4999850;28;19948;-85
2023/01/04 13:07:15;;;;;;;;;;;11.50;92.00;;;;;;5015523;28;19922;-84
2023/01/04 13:09:45;;;;;;;;;;;11.40;91.90;;;;;;5035188;28;19975;-82
2023/01/04 13:12:32;;;;;;;;;;;11.50;91.90;;;;;;5014159;28;19913;-84
2023/01/04 13:15:02;;;;;;;;;;;11.40;92.00;;;;;;4998619;28;20392;-82
2023/01/04 13:17:37;;;;;;;;;;;11.50;91.90;;;;;;4991149;28;19917;-86
2023/01/04 13:20:14;;;;;;;;;;;11.50;91.60;;;;;;4999961;28;19955;-84
2023/01/04 13:22:44;;;;;;;;;;;11.50;91.80;;;;;;5027382;28;20660;-86
2023/01/04 13:25:12;;;;;;;;;;;11.50;91.70;;;;;;5013701;28;19917;-84
2023/01/04 13:27:37;;;;;;;;;;;11.60;91.60;;;;;;5026736;28;19917;-83
2023/01/04 13:30:03;;;;;;;;;;;11.60;91.40;;;;;;5009758;28;19968;-83
2023/01/04 13:32:30;;;;;;;;;;;11.60;91.50;;;;;;4997611;28;19948;-83
2023/01/04 13:35:03;;;;;;;;;;;11.60;91.60;;;;;;5025743;28;19914;-85
2023/01/04 13:37:37;;;;;;;;;;;11.60;91.80;;;;;;4998817;28;19909;-84
2023/01/04 13:40:22;;;;;;;;;;;11.60;91.80;;;;;;5011756;28;19913;-84
2023/01/04 13:43:10;;;;;;;;;;;11.60;91.80;;;;;;4999393;28;19914;-84
2023/01/04 13:45:49;;;;;;;;;;;11.60;91.70;;;;;;5000379;28;19917;-84
2023/01/04 13:48:16;;;;;;;;;;;11.60;91.70;;;;;;5029985;28;19967;-82
2023/01/04 13:50:45;;;;;;;;;;;11.60;91.80;;;;;;5004288;28;20215;-82
2023/01/04 13:53:20;;;;;;;;;;;11.70;91.90;;;;;;5005003;28;19992;-80
2023/01/04 13:55:48;;;;;;;;;;;11.70;92.00;;;;;;5004130;28;20016;-84
2023/01/04 13:58:16;;;;;;;;;;;11.60;92.20;;;;;;5027591;28;19916;-86
2023/01/04 14:00:42;;;;;;;;;;;11.60;92.10;;;;;;5003874;28;19921;-86
2023/01/04 14:03:16;;;;;;;;;;;11.70;92.10;;;;;;4998669;28;19909;-87
2023/01/04 14:05:46;;;;;;;;;;;11.60;92.00;;;;;;5027061;28;19956;-86
2023/01/04 14:08:16;;;;;;;;;;;11.60;92.10;;;;;;5037632;28;19925;-85
2023/01/04 14:10:42;;;;;;;;;;;11.70;92.00;;;;;;5017093;28;19917;-86
2023/01/04 14:13:13;;;;;;;;;;;11.70;92.00;;;;;;5027473;28;19936;-84
2023/01/04 14:15:38;;;;;;;;;;;11.70;92.00;;;;;;5012275;28;19917;-83
2023/01/04 14:18:04;;;;;;;;;;;11.70;91.80;;;;;;4999912;28;19921;-83
2023/01/04 14:20:31;;;;;;;;;;;11.80;91.70;;;;;;5022215;28;20019;-83
2023/01/04 14:22:57;;;;;;;;;;;11.80;91.60;;;;;;5029572;28;19913;-84
2023/01/04 14:25:47;;;;;;;;;;;11.90;91.40;;;;;;5017467;28;21533;-83
2023/01/04 14:28:28;;;;;;;;;;;11.80;91.40;;;;;;5007707;28;19921;-82
2023/01/04 14:30:56;;;;;;;;;;;11.80;91.40;;;;;;5025587;28;19922;-81
2023/01/04 14:33:22;;;;;;;;;;;11.80;91.40;;;;;;5018941;28;19921;-81
2023/01/04 14:36:00;;;;;;;;;;;11.90;91.50;;;;;;4998351;28;19913;-82
2023/01/04 14:38:26;;;;;;;;;;;11.90;91.40;;;;;;5029204;28;19922;-83
2023/01/04 14:40:51;;;;;;;;;;;11.90;91.50;;;;;;5013790;28;19972;-80
2023/01/04 14:43:52;;;;;;;;;;;11.90;91.70;;;;;;4998671;28;20397;-81
2023/01/04 14:46:18;;;;;;;;;;;11.80;91.80;;;;;;4971953;28;19924;-81
2023/01/04 14:48:43;;;;;;;;;;;11.80;92.10;;;;;;5005005;28;19922;-81
2023/01/04 14:51:10;;;;;;;;;;;11.70;92.30;;;;;;4998556;28;19972;-82
2023/01/04 14:53:36;;;;;;;;;;;11.70;92.60;;;;;;4993069;28;19945;-82
2023/01/04 14:56:01;;;;;;;;;;;11.70;92.70;;;;;;4999155;28;20420;-81
2023/01/04 14:58:27;;;;;;;;;;;11.60;92.80;;;;;;5029484;28;19921;-81
2023/01/04 15:00:52;;;;;;;;;;;11.80;92.80;;;;;;5000280;28;20259;-80
2023/01/04 15:03:18;;;;;;;;;;;11.70;93.00;;;;;;5008784;28;19914;-81
2023/01/04 15:05:44;;;;;;;;;;;11.70;93.10;;;;;;5011767;28;19918;-83
2023/01/04 15:08:10;;;;;;;;;;;11.80;93.10;;;;;;5016254;28;19960;-83
2023/01/04 15:10:36;;;;;;;;;;;11.70;93.10;;;;;;5034411;28;19924;-83
2023/01/04 15:13:03;;;;;;;;;;;11.70;93.20;;;;;;4990612;28;19914;-82
2023/01/04 15:15:28;;;;;;;;;;;11.70;92.90;;;;;;5005382;28;19960;-83
2023/01/04 15:17:54;;;;;;;;;;;11.70;93.10;;;;;;4996224;28;20055;-81
2023/01/04 15:20:19;;;;;;;;;;;11.70;93.00;;;;;;5035613;28;20024;-81
2023/01/04 15:22:45;;;;;;;;;;;11.70;93.00;;;;;;4997279;28;19922;-82